createdAt,value
2024-05-09T00:00:50.009Z,99374.05
2024-05-09T00:11:18.488Z,99369.55
2024-05-09T00:21:26.203Z,99368.90
2024-05-09T00:31:33.042Z,99363.34
2024-05-09T00:41:40.250Z,99364.84
2024-05-09T00:51:48.240Z,99363.70
2024-05-09T01:01:55.695Z,99357.94
2024-05-09T01:12:02.641Z,99355.54
2024-05-09T01:22:10.012Z,99354.27
2024-05-09T01:32:17.007Z,99352.97
2024-05-09T01:42:24.053Z,99356.61
2024-05-09T01:52:30.981Z,99360.63
2024-05-09T02:02:38.178Z,99352.23
2024-05-09T02:12:45.141Z,99361.88
2024-05-09T02:22:52.304Z,99363.19
2024-05-09T02:32:59.861Z,99357.83
2024-05-09T02:43:08.537Z,99357.91
2024-05-09T02:53:17.456Z,99365.78
2024-05-09T03:03:25.189Z,99370.50
2024-05-09T03:13:32.624Z,99371.40
2024-05-09T03:23:42.142Z,99367.81
2024-05-09T03:33:49.312Z,99378.52
2024-05-09T03:43:56.645Z,99380.54
2024-05-09T03:54:04.143Z,99376.23
2024-05-09T04:04:11.292Z,99374.74
2024-05-09T04:14:18.359Z,99384.42
2024-05-09T04:24:25.102Z,99386.28
2024-05-09T04:34:31.884Z,99397.50
2024-05-09T04:44:39.876Z,99414.37
2024-05-09T04:54:47.025Z,99416.86
2024-05-09T05:04:57.575Z,99422.36
2024-05-09T05:15:12.047Z,99424.42
2024-05-09T05:25:19.320Z,99429.81
2024-05-09T05:35:26.044Z,99434.04
2024-05-09T05:45:33.227Z,99439.53
2024-05-09T05:55:42.006Z,99440.58
2024-05-09T06:05:56.792Z,99436.68
2024-05-09T06:16:05.172Z,99434.34
2024-05-09T06:26:11.800Z,99441.05
2024-05-09T06:36:18.756Z,99438.03
2024-05-09T06:46:27.042Z,99437.64
2024-05-09T06:56:34.345Z,99441.48
2024-05-09T07:06:42.265Z,99436.42
2024-05-09T07:16:49.947Z,99425.44
2024-05-09T07:26:57.996Z,99427.02
2024-05-09T07:37:06.274Z,99431.06
2024-05-09T07:48:28.026Z,99428.69
2024-05-09T07:57:40.732Z,99430.50
2024-05-09T08:07:47.870Z,99427.01
2024-05-09T08:17:54.814Z,99425.16
2024-05-09T08:28:02.391Z,99421.69
2024-05-09T08:38:10.165Z,99426.56
2024-05-09T08:48:17.620Z,99420.91
2024-05-09T08:58:25.637Z,99420.33
2024-05-09T09:08:32.748Z,99425.44
2024-05-09T09:18:40.539Z,99421.27
2024-05-09T09:28:48.022Z,99421.61
2024-05-09T09:38:56.315Z,99417.32
2024-05-09T09:49:03.707Z,99412.57
2024-05-09T09:59:14.918Z,99405.62
2024-05-09T10:09:23.579Z,99402.48
2024-05-09T10:19:31.883Z,99396.37
2024-05-09T10:29:39.119Z,99391.34
2024-05-09T10:39:46.330Z,99397.23
2024-05-09T10:49:53.253Z,99389.44
2024-05-09T11:00:02.477Z,99380.94
2024-05-09T11:10:14.554Z,99370.25
2024-05-09T11:20:29.114Z,99367.70
2024-05-09T11:30:37.063Z,99362.52
2024-05-09T11:40:44.214Z,99354.89
2024-05-09T11:50:51.059Z,99352.02
2024-05-09T12:00:58.200Z,99345.97
2024-05-09T12:11:05.914Z,99338.95
2024-05-09T12:21:16.901Z,99337.27
2024-05-09T12:31:23.788Z,99328.30
2024-05-09T12:41:30.411Z,99321.27
2024-05-09T12:51:37.023Z,99315.44
2024-05-09T13:01:43.911Z,99296.33
2024-05-09T13:11:50.510Z,99286.10
2024-05-09T13:21:58.255Z,99275.17
2024-05-09T13:32:05.130Z,99266.20
2024-05-09T13:42:12.638Z,99261.07
2024-05-09T13:52:20.667Z,99255.40
2024-05-09T14:02:27.930Z,99252.89
2024-05-09T14:12:34.825Z,99242.13
2024-05-09T14:22:57.711Z,99236.32
2024-05-09T14:33:05.723Z,99235.36
2024-05-09T14:43:14.516Z,99229.06
2024-05-09T14:53:23.809Z,99220.14
2024-05-09T15:03:30.848Z,99217.64
2024-05-09T15:13:37.676Z,99218.14
2024-05-09T15:23:44.379Z,99210.83
2024-05-09T15:33:51.507Z,99202.30
2024-05-09T15:43:58.587Z,99200.17
2024-05-09T15:54:06.714Z,99195.98
2024-05-09T16:04:15.143Z,99195.73
2024-05-09T16:14:22.076Z,99198.16
2024-05-09T16:24:28.744Z,99196.14
2024-05-09T16:34:35.439Z,99189.89
2024-05-09T16:44:42.176Z,99187.52
2024-05-09T16:54:49.333Z,99182.98
2024-05-09T17:04:56.295Z,99178.16
2024-05-09T17:15:06.480Z,99182.09
2024-05-09T17:25:17.282Z,99181.88
2024-05-09T17:35:24.662Z,99182.91
2024-05-09T17:45:42.197Z,99186.48
2024-05-09T17:55:49.149Z,99186.41
2024-05-09T18:05:55.947Z,99192.48
2024-05-09T18:16:04.451Z,99191.48
2024-05-09T18:26:11.265Z,99198.81
2024-05-09T18:36:19.011Z,99208.92
2024-05-09T18:46:26.021Z,99221.75
2024-05-09T18:56:32.884Z,99236.92
2024-05-09T19:06:40.782Z,99250.59
2024-05-09T19:16:47.339Z,99264.36
2024-05-09T19:26:56.278Z,99271.52
2024-05-09T19:37:03.411Z,99276.73
2024-05-09T19:47:12.368Z,99280.25
2024-05-09T19:57:20.611Z,99283.81
2024-05-09T20:07:27.553Z,99290.43
2024-05-09T20:17:34.271Z,99286.77
2024-05-09T20:27:41.300Z,99287.86
2024-05-09T20:37:47.768Z,99289.48
2024-05-09T20:47:55.880Z,99289.83
2024-05-09T20:58:02.795Z,99287.16
2024-05-09T21:08:10.280Z,99283.98
2024-05-09T21:18:17.438Z,99278.48
2024-05-09T21:28:24.993Z,99287.67
2024-05-09T21:38:32.111Z,99289.64
2024-05-09T21:48:39.731Z,99287.55
2024-05-09T21:58:46.163Z,99284.70
2024-05-09T22:08:52.703Z,99286.01
2024-05-09T22:18:59.648Z,99283.79
2024-05-09T22:29:06.512Z,99284.58
2024-05-09T22:39:12.893Z,99283.57
2024-05-09T22:49:19.956Z,99281.19
2024-05-09T22:59:27.150Z,99285.95
2024-05-09T23:09:33.833Z,99279.86
2024-05-09T23:19:40.568Z,99278.52
2024-05-09T23:30:00.616Z,99278.20
2024-05-09T23:40:09.997Z,99274.22
2024-05-09T23:50:23.987Z,99267.07
